Time;durP1;ratioP1;P1;durP2;ratioP2;P2;SDS_P1;SDS_P2;PMS_P1;PMS_P2;Temp;Humidity;BMP_temperature;BMP_pressure;BME280_temperature;BME280_humidity;BME280_pressure;Samples;Min_cycle;Max_cycle;Signal;HPM_P1;HPM_P2
2022/04/01 00:01:56;;;;;;;32.63;9.15;;;;;;;14.04;77.09;99459.75;5029339;28;20025;-72
2022/04/01 00:04:21;;;;;;;26.50;8.20;;;;;;;14.08;76.71;99464.06;5028865;28;20444;-71
2022/04/01 00:06:47;;;;;;;38.03;9.52;;;;;;;13.98;76.86;99459.69;5028663;28;20448;-72
2022/04/01 00:09:13;;;;;;;33.95;9.20;;;;;;;14.03;76.93;99477.88;5029643;28;20543;-72
2022/04/01 00:11:38;;;;;;;28.83;7.82;;;;;;;13.89;77.79;99457.03;5029699;28;20030;-72
2022/04/01 00:14:05;;;;;;;36.75;9.23;;;;;;;13.85;77.91;99450.09;5029347;28;20036;-72
2022/04/01 00:16:31;;;;;;;31.63;8.45;;;;;;;13.84;77.93;99443.16;5029494;28;20037;-72
2022/04/01 00:18:56;;;;;;;33.10;8.68;;;;;;;13.64;78.39;99427.44;5028847;28;20026;-71
2022/04/01 00:21:21;;;;;;;37.95;9.35;;;;;;;13.79;77.96;99444.84;5028415;28;20033;-74
2022/04/01 00:23:47;;;;;;;30.65;8.18;;;;;;;13.85;77.55;99434.50;5029258;28;20076;-72
2022/04/01 00:26:12;;;;;;;35.97;9.88;;;;;;;13.70;77.25;99386.84;5029180;28;20439;-72
2022/04/01 00:28:38;;;;;;;40.83;8.68;;;;;;;13.89;76.67;99400.81;5029177;28;20404;-72
2022/04/01 00:31:04;;;;;;;41.17;9.50;;;;;;;13.78;77.28;99371.31;5032040;28;20044;-72
2022/04/01 00:33:30;;;;;;;33.05;9.80;;;;;;;13.83;77.38;99348.91;5032829;28;20034;-72
2022/04/01 00:35:55;;;;;;;35.90;9.32;;;;;;;13.81;77.07;99316.03;5033230;28;20033;-73
2022/04/01 00:38:21;;;;;;;37.10;8.73;;;;;;;13.74;77.06;99250.25;5033050;28;20029;-73
2022/04/01 00:40:48;;;;;;;32.03;8.50;;;;;;;13.73;77.86;99246.81;5032857;28;20060;-73
2022/04/01 00:43:13;;;;;;;38.28;10.27;;;;;;;13.72;78.27;99302.16;5032858;28;20025;-70
2022/04/01 00:45:39;;;;;;;38.58;8.95;;;;;;;13.55;78.15;99268.31;5033623;28;20032;-74
2022/04/01 00:48:04;;;;;;;31.45;9.15;;;;;;;13.72;78.12;99303.84;5033343;28;20029;-74
2022/04/01 00:50:32;;;;;;;35.08;8.40;;;;;;;13.81;78.37;99310.84;5033087;28;20037;-73
2022/04/01 00:52:58;;;;;;;37.42;9.10;;;;;;;13.90;78.18;99308.28;5033145;28;20029;-72
2022/04/01 00:55:24;;;;;;;32.55;8.43;;;;;;;13.86;78.36;99310.00;4981649;28;20045;-73
2022/04/01 00:57:49;;;;;;;33.75;8.25;;;;;;;13.95;78.29;99318.69;5032937;28;20040;-73
2022/04/01 01:00:17;;;;;;;37.17;9.02;;;;;;;13.97;78.29;99309.16;5033673;28;20400;-72
2022/04/01 01:02:43;;;;;;;26.65;8.50;;;;;;;13.91;78.87;99295.31;5031965;28;20497;-73
2022/04/01 01:05:08;;;;;;;26.35;6.68;;;;;;;13.82;78.90;99307.38;5030072;28;20036;-73
2022/04/01 01:07:36;;;;;;;30.15;7.65;;;;;;;13.82;78.17;99322.94;5018895;28;20041;-73
2022/04/01 01:10:03;;;;;;;36.97;9.02;;;;;;;13.71;77.64;99300.41;5013792;28;20083;-70
2022/04/01 01:12:29;;;;;;;30.55;8.38;;;;;;;13.88;76.08;99310.88;5013496;28;20049;-73
2022/04/01 01:14:54;;;;;;;32.53;7.65;;;;;;;14.14;75.12;99324.81;5012702;28;20029;-73
2022/04/01 01:17:20;;;;;;;28.17;8.40;;;;;;;14.19;74.88;99343.88;5012934;28;20034;-74
2022/04/01 01:19:45;;;;;;;35.45;8.95;;;;;;;14.08;75.42;99355.06;5032202;28;20136;-74
2022/04/01 01:22:13;;;;;;;38.20;8.80;;;;;;;13.98;75.59;99365.41;5032290;28;20022;-73
2022/04/01 01:24:41;;;;;;;34.95;8.60;;;;;;;13.96;75.62;99377.50;5032304;28;20033;-73
2022/04/01 01:27:08;;;;;;;39.83;8.68;;;;;;;13.94;75.56;99358.47;4968702;28;20481;-74
2022/04/01 01:29:38;;;;;;;30.23;8.48;;;;;;;13.88;75.56;99322.97;4970749;28;20042;-73
2022/04/01 01:32:06;;;;;;;38.42;8.43;;;;;;;13.86;75.29;99236.50;4970742;28;20089;-71
2022/04/01 01:34:32;;;;;;;40.90;8.73;;;;;;;13.80;75.65;99192.38;4970706;28;20138;-74
2022/04/01 01:36:59;;;;;;;35.88;9.48;;;;;;;13.64;76.33;99179.34;4971039;28;20082;-73
2022/04/01 01:39:25;;;;;;;29.58;8.20;;;;;;;13.56;77.06;99238.09;4970814;28;20049;-73
2022/04/01 01:41:53;;;;;;;30.65;7.30;;;;;;;13.42;77.81;99263.94;4970391;28;20515;-73
2022/04/01 01:44:19;;;;;;;39.50;9.95;;;;;;;13.42;77.02;99246.66;4953848;28;20027;-73
2022/04/01 01:46:45;;;;;;;33.95;8.82;;;;;;;13.51;76.37;99250.19;4970614;28;20078;-73
2022/04/01 01:49:11;;;;;;;40.22;9.05;;;;;;;13.53;76.34;99212.13;4970294;28;20038;-71
2022/04/01 01:57:06;;;;;;;36.60;8.95;;;;;;;13.62;74.82;99269.25;4973317;28;20438;-73
2022/04/01 01:59:33;;;;;;;30.30;8.65;;;;;;;13.73;74.20;99246.81;5014053;28;20465;-73
2022/04/01 02:02:00;;;;;;;32.00;7.88;;;;;;;13.75;73.80;99213.09;5019565;28;20164;-72
2022/04/01 02:04:26;;;;;;;31.55;6.57;;;;;;;13.52;73.23;99169.78;5011364;28;20029;-72
2022/04/01 02:06:51;;;;;;;36.13;8.48;;;;;;;13.78;73.00;99218.28;5011416;28;20025;-73
2022/04/01 02:09:17;;;;;;;31.08;8.98;;;;;;;13.75;72.84;99203.56;5011107;28;20026;-72
2022/04/01 02:11:43;;;;;;;35.60;8.40;;;;;;;13.73;73.41;99191.47;5011740;28;20030;-74
2022/04/01 02:14:12;;;;;;;32.38;6.93;;;;;;;13.67;73.63;99230.34;5012149;28;20485;-71
2022/04/01 02:16:39;;;;;;;30.30;6.28;;;;;;;13.48;73.35;99187.91;5012459;28;20405;-71
2022/04/01 02:19:04;;;;;;;25.80;6.85;;;;;;;13.45;73.69;99156.81;5012318;28;20037;-71
2022/04/01 02:21:30;;;;;;;33.55;7.70;;;;;;;13.55;72.97;99179.31;5012485;28;20444;-71
2022/04/01 02:23:55;;;;;;;35.97;7.78;;;;;;;13.66;72.41;99224.31;5011801;28;20496;-73
2022/04/01 02:26:21;;;;;;;32.38;7.43;;;;;;;13.73;71.53;99192.34;5012195;28;20417;-73
2022/04/01 02:28:48;;;;;;;30.92;7.70;;;;;;;13.52;71.38;99193.13;5011937;28;20030;-74
2022/04/01 02:31:18;;;;;;;33.92;8.45;;;;;;;13.66;70.26;99226.91;5017247;28;20103;-75
2022/04/01 02:33:43;;;;;;;29.00;7.47;;;;;;;13.76;69.94;99230.41;5012164;28;20473;-75
2022/04/01 02:36:13;;;;;;;33.50;7.78;;;;;;;13.92;69.11;99257.28;5009261;28;20080;-72
2022/04/01 02:38:41;;;;;;;29.83;7.75;;;;;;;14.01;68.66;99262.47;5010248;28;20057;-75
2022/04/01 02:41:08;;;;;;;39.95;8.80;;;;;;;14.01;68.69;99244.31;5009999;28;20034;-76
2022/04/01 02:43:35;;;;;;;38.60;8.88;;;;;;;13.99;68.24;99212.28;4959361;28;20046;-73
2022/04/01 02:46:02;;;;;;;41.28;8.73;;;;;;;14.04;68.27;99228.78;5009627;28;20154;-75
2022/04/01 02:48:28;;;;;;;30.88;8.15;;;;;;;14.09;68.17;99213.19;5010118;28;20034;-75
2022/04/01 02:50:53;;;;;;;34.40;8.40;;;;;;;13.84;68.14;99168.16;5009690;28;20025;-75
2022/04/01 02:53:19;;;;;;;42.00;8.85;;;;;;;14.02;67.78;99157.81;5027387;28;20029;-75
2022/04/01 02:55:45;;;;;;;34.55;8.18;;;;;;;14.11;67.99;99164.75;5030344;28;20043;-72
2022/04/01 02:58:12;;;;;;;31.50;8.40;;;;;;;14.13;67.33;99156.97;5030290;28;20473;-75
2022/04/01 03:00:38;;;;;;;32.45;7.82;;;;;;;14.12;66.81;99148.34;5019370;28;20025;-74
2022/04/01 03:03:08;;;;;;;35.88;8.15;;;;;;;14.13;66.79;99152.66;5024819;28;20087;-75
2022/04/01 03:05:37;;;;;;;;;;;;;;;14.20;66.68;99201.09;5009960;28;20030;-72
2022/04/01 03:08:06;;;;;;;31.90;7.65;;;;;;;13.94;66.18;99156.94;5025304;28;20334;-74
2022/04/01 03:10:32;;;;;;;36.58;7.60;;;;;;;14.27;65.26;99190.72;5029655;28;20040;-79
2022/04/01 03:12:59;;;;;;;29.85;7.93;;;;;;;14.21;65.46;99145.72;5030537;28;20029;-77
2022/04/01 03:15:24;;;;;;;40.83;10.18;;;;;;;14.33;65.30;99165.66;5030361;28;20021;-76
2022/04/01 03:17:50;;;;;;;31.50;7.88;;;;;;;14.35;65.35;99192.47;5029727;28;20026;-79
2022/04/01 03:20:16;;;;;;;41.30;9.73;;;;;;;14.29;64.84;99182.06;5030244;28;20053;-77
2022/04/01 03:22:43;;;;;;;37.08;8.70;;;;;;;14.39;64.48;99196.81;5030186;28;20111;-80
2022/04/01 03:25:14;;;;;;;33.53;8.27;;;;;;;14.47;64.16;99183.84;5030015;28;20037;-76
2022/04/01 03:27:39;;;;;;;26.13;7.43;;;;;;;14.37;63.83;99175.16;5029807;28;20481;-76
2022/04/01 03:30:09;;;;;;;32.28;8.35;;;;;;;14.45;64.32;99187.28;5030185;28;20018;-76
2022/04/01 03:32:38;;;;;;;32.35;8.15;;;;;;;14.36;64.42;99151.81;5020766;28;20040;-73
2022/04/01 03:35:24;;;;;;;29.65;8.95;;;;;;;14.38;64.47;99173.41;5009739;28;20121;-75
2022/04/01 03:37:50;;;;;;;37.20;8.40;;;;;;;14.35;64.32;99132.75;5009379;28;20515;-74
2022/04/01 03:40:16;;;;;;;28.35;7.93;;;;;;;14.39;64.50;99152.69;5008873;28;20018;-75
2022/04/01 03:42:46;;;;;;;28.50;7.32;;;;;;;14.38;64.49;99144.88;5009952;28;20493;-71
2022/04/01 03:45:13;;;;;;;37.58;8.82;;;;;;;14.37;64.65;99136.22;5009770;28;20030;-74
2022/04/01 03:47:47;;;;;;;32.20;8.32;;;;;;;14.38;64.71;99152.66;5010147;28;20025;-72
2022/04/01 03:50:16;;;;;;;39.63;9.98;;;;;;;14.26;64.98;99158.72;5010020;28;20101;-74
2022/04/01 03:52:45;;;;;;;33.13;8.75;;;;;;;14.19;65.02;99128.44;5009873;28;20026;-74
2022/04/01 03:55:11;;;;;;;36.25;8.82;;;;;;;14.34;65.30;99149.22;5010041;28;20044;-75
2022/04/01 03:57:39;;;;;;;28.00;9.18;;;;;;;14.21;65.65;99139.69;5009198;28;20026;-75
2022/04/01 04:00:12;;;;;;;28.08;8.07;;;;;;;14.07;65.86;99131.91;5009660;28;20497;-75
2022/04/01 04:02:42;;;;;;;36.90;8.55;;;;;;;14.09;66.22;99145.72;5010183;28;20493;-76
2022/04/01 04:05:09;;;;;;;31.98;8.30;;;;;;;14.08;66.68;99176.00;5009874;28;20030;-72
2022/04/01 04:07:36;;;;;;;32.80;9.13;;;;;;;13.99;67.00;99165.59;5009212;28;20030;-75
2022/04/01 04:10:04;;;;;;;27.17;9.68;;;;;;;13.97;67.10;99172.53;5009166;28;20080;-72
2022/04/01 04:12:31;;;;;;;37.45;8.80;;;;;;;13.97;67.29;99184.63;5010007;28;20030;-75
2022/04/01 04:14:57;;;;;;;33.35;9.02;;;;;;;13.90;67.56;99181.16;5009717;28;20030;-74
2022/04/01 04:17:42;;;;;;;40.40;8.88;;;;;;;13.88;67.89;99194.13;5028791;28;20038;-74
2022/04/01 04:20:18;;;;;;;33.35;8.52;;;;;;;13.88;67.93;99181.16;5030149;28;20083;-71
2022/04/01 04:22:46;;;;;;;32.83;9.35;;;;;;;13.85;68.06;99175.94;5029509;28;20408;-74
2022/04/01 04:25:14;;;;;;;33.47;9.70;;;;;;;13.55;68.74;99143.00;5030492;28;20033;-72
2022/04/01 04:27:55;;;;;;;36.95;8.98;;;;;;;13.70;68.92;99168.13;5030235;28;20044;-76
2022/04/01 04:30:34;;;;;;;38.05;10.00;;;;;;;13.74;69.25;99181.13;5012326;28;20091;-71
2022/04/01 04:33:07;;;;;;;33.88;9.05;;;;;;;13.64;69.77;99168.97;5029946;28;20068;-73
2022/04/01 04:35:37;;;;;;;50.20;10.52;;;;;;;13.49;69.65;99156.81;5030208;28;20072;-74
2022/04/01 04:38:06;;;;;;;36.38;9.10;;;;;;;13.75;69.92;99189.75;5029940;28;20025;-74
2022/04/01 04:40:34;;;;;;;29.92;9.80;;;;;;;13.74;70.30;99194.09;5029659;28;20033;-74
2022/04/01 04:43:00;;;;;;;39.15;9.93;;;;;;;13.74;70.66;99193.19;5029699;28;20082;-74
2022/04/01 04:45:28;;;;;;;32.65;9.32;;;;;;;13.70;70.63;99179.34;5029384;28;20520;-73
2022/04/01 04:47:53;;;;;;;29.48;9.00;;;;;;;13.83;70.39;99207.94;5029826;28;20087;-74
2022/04/01 04:50:20;;;;;;;35.65;9.48;;;;;;;13.89;69.77;99200.16;5029810;28;20021;-73
2022/04/01 04:52:53;;;;;;;37.20;9.50;;;;;;;13.92;68.95;99189.81;5029882;28;20483;-72
2022/04/01 04:55:20;;;;;;;32.92;9.85;;;;;;;14.11;68.43;99214.06;5029838;28;20026;-74
2022/04/01 04:57:47;;;;;;;32.53;8.85;;;;;;;14.19;67.95;99199.41;5029753;28;20037;-74
2022/04/01 05:00:19;;;;;;;31.88;9.52;;;;;;;14.26;67.67;99200.25;5011863;28;20034;-72
2022/04/01 05:03:19;;;;;;;36.47;9.52;;;;;;;14.35;66.97;99205.44;5011971;28;20136;-74
2022/04/01 05:05:54;;;;;;;32.92;9.95;;;;;;;14.36;66.59;99202.00;5029467;28;20032;-74
2022/04/01 05:08:50;;;;;;;34.75;9.50;;;;;;;14.51;65.36;99200.28;5029316;28;20025;-74
2022/04/01 05:11:43;;;;;;;40.40;9.18;;;;;;;14.63;64.46;99205.47;5029936;28;20021;-74
2022/04/01 05:14:21;;;;;;;31.17;8.65;;;;;;;14.68;63.61;99201.19;5029673;28;20037;-74
2022/04/01 05:16:57;;;;;;;30.08;8.82;;;;;;;14.83;63.26;99196.84;5031795;28;20030;-73
2022/04/01 05:19:28;;;;;;;37.65;9.35;;;;;;;14.87;62.40;99190.78;5032988;28;20693;-73
2022/04/01 05:22:05;;;;;;;30.42;9.23;;;;;;;14.98;61.96;99196.81;5033422;28;20053;-74
2022/04/01 05:24:37;;;;;;;33.03;9.07;;;;;;;15.03;61.38;99189.88;5033119;28;20108;-72
2022/04/01 05:27:05;;;;;;;42.13;8.82;;;;;;;15.12;61.24;99188.16;5033222;28;20052;-76
2022/04/01 05:29:42;;;;;;;34.70;9.13;;;;;;;15.14;60.61;99163.00;5033111;28;20041;-73
2022/04/01 05:32:13;;;;;;;43.65;9.55;;;;;;;15.27;60.64;99169.88;5033134;28;20113;-74
2022/04/01 05:34:43;;;;;;;33.22;9.32;;;;;;;15.35;60.62;99175.94;5032864;28;20761;-71
2022/04/01 05:37:09;;;;;;;29.35;9.15;;;;;;;15.43;60.38;99180.25;5033250;28;20017;-74
2022/04/01 05:39:37;;;;;;;24.95;8.32;;;;;;;15.33;59.95;99153.41;5014778;28;20037;-73
2022/04/01 05:42:05;;;;;;;37.13;9.45;;;;;;;15.40;60.91;99151.66;5033081;28;20032;-74
2022/04/01 05:44:32;;;;;;;32.85;9.50;;;;;;;15.59;60.51;99168.03;5032731;28;20044;-74
2022/04/01 05:46:59;;;;;;;28.27;8.77;;;;;;;15.69;59.21;99186.19;5014807;28;20531;-73
2022/04/01 05:49:26;;;;;;;34.78;8.88;;;;;;;15.79;58.68;99179.22;5032643;28;20033;-74
2022/04/01 05:51:52;;;;;;;27.15;8.13;;;;;;;15.84;57.87;99179.25;5032781;28;20033;-76
2022/04/01 05:54:19;;;;;;;31.90;8.77;;;;;;;15.93;58.05;99173.97;5032078;28;20064;-73
2022/04/01 06:00:12;;;;;;;30.48;8.50;;;;;;;16.31;56.74;99177.19;5144066;22;20068;-74
2022/04/01 06:02:58;;;;;;;42.50;9.10;;;;;;;16.35;56.01;99163.28;5036842;28;20038;-73
2022/04/01 06:05:36;;;;;;;34.00;9.15;;;;;;;16.41;56.93;99165.84;5037720;28;20033;-73
2022/04/01 06:08:24;;;;;;;28.25;8.07;;;;;;;16.47;56.97;99149.28;5047387;28;20036;-73
2022/04/01 06:11:13;;;;;;;33.13;8.02;;;;;;;16.55;55.87;99136.19;5051390;28;20404;-73
2022/04/01 06:13:58;;;;;;;28.02;8.88;;;;;;;16.73;55.94;99142.97;5051459;28;20492;-73
2022/04/01 06:16:45;;;;;;;25.92;8.65;;;;;;;16.79;54.77;99135.97;5051654;28;20029;-73
2022/04/01 06:19:26;;;;;;;33.05;9.85;;;;;;;16.94;54.29;99149.75;5050740;28;20443;-73
2022/04/01 06:22:05;;;;;;;35.58;8.55;;;;;;;17.03;53.29;99144.44;5051131;28;20031;-73
2022/04/01 06:24:34;;;;;;;;;;;;;;;17.09;52.76;99152.19;5051861;28;20067;-73
2022/04/01 06:27:01;;;;;;;30.20;8.40;;;;;;;17.14;53.48;99157.38;5050504;28;19920;-73
2022/04/01 06:29:43;;;;;;;24.08;6.53;;;;;;;17.11;52.77;99144.38;5051208;28;20040;-73
2022/04/01 06:32:23;;;;;;;30.13;7.68;;;;;;;17.23;52.36;99136.38;5051389;28;20033;-73
2022/04/01 06:35:02;;;;;;;;;;;;;;;17.37;52.58;99144.06;5040741;28;20033;-74
2022/04/01 06:37:32;;;;;;;41.90;8.75;;;;;;;17.43;52.47;99144.00;5049234;28;19917;-73
2022/04/01 06:40:07;;;;;;;30.20;7.65;;;;;;;17.55;52.75;99153.41;5046131;28;20106;-74
2022/04/01 06:42:37;;;;;;;39.33;9.32;;;;;;;17.59;51.55;99152.47;5044511;28;20025;-74
2022/04/01 06:45:04;;;;;;;33.28;8.35;;;;;;;17.60;52.01;99154.19;5050931;28;20452;-74
2022/04/01 06:47:30;;;;;;;26.33;6.25;;;;;;;17.66;50.94;99142.81;5050864;28;20521;-73
2022/04/01 06:49:55;;;;;;;34.25;9.55;;;;;;;17.69;50.95;99124.50;5047506;28;20026;-74
2022/04/01 06:52:21;;;;;;;25.13;7.38;;;;;;;17.74;49.91;99146.19;5039700;28;20556;-73
2022/04/01 06:54:46;;;;;;;35.15;7.95;;;;;;;17.94;50.49;99140.72;5047906;28;20021;-75
2022/04/01 06:57:12;;;;;;;31.52;7.57;;;;;;;17.84;49.65;99120.81;5051234;28;20033;-74
2022/04/01 06:59:37;;;;;;;36.65;7.85;;;;;;;17.99;49.16;99129.34;5051509;28;20064;-73
2022/04/01 07:02:03;;;;;;;34.22;7.72;;;;;;;18.14;48.88;99155.22;5051639;28;20017;-73
2022/04/01 07:04:29;;;;;;;37.97;8.70;;;;;;;18.04;49.40;99122.31;5032566;28;20515;-74
2022/04/01 07:06:55;;;;;;;31.15;7.40;;;;;;;18.23;49.07;99143.75;5051524;28;20488;-74
2022/04/01 07:09:22;;;;;;;33.08;8.73;;;;;;;18.32;49.16;99148.88;5051382;28;20447;-74
2022/04/01 07:11:48;;;;;;;30.00;8.05;;;;;;;18.34;48.94;99148.84;5051317;28;20025;-74
2022/04/01 07:14:14;;;;;;;32.00;7.57;;;;;;;18.39;49.13;99152.22;5051347;28;20094;-74
2022/04/01 07:16:39;;;;;;;32.70;7.82;;;;;;;18.38;48.54;99137.44;5051382;28;20578;-74
2022/04/01 07:19:04;;;;;;;29.77;6.10;;;;;;;18.50;48.15;99125.94;5051265;28;20115;-74
2022/04/01 07:21:30;;;;;;;33.83;7.82;;;;;;;18.68;48.29;99148.25;5049925;28;20028;-74
2022/04/01 07:23:55;;;;;;;29.85;7.63;;;;;;;18.72;47.65;99152.56;5050884;28;20095;-74
2022/04/01 07:26:21;;;;;;;30.33;7.72;;;;;;;18.75;47.76;99131.56;5050984;28;20075;-77
2022/04/01 07:28:47;;;;;;;33.30;9.10;;;;;;;18.67;47.87;99104.72;5050983;28;20104;-74
2022/04/01 07:33:57;;;;;;;33.72;7.57;;;;;;;19.05;46.08;99134.53;5051081;28;20067;-74
2022/04/01 07:36:23;;;;;;;44.13;9.27;;;;;;;18.87;46.36;99117.44;5050437;28;20060;-74
2022/04/01 07:38:48;;;;;;;34.42;7.82;;;;;;;19.08;46.31;99144.97;5050555;28;20496;-73
2022/04/01 07:41:14;;;;;;;29.52;8.27;;;;;;;19.15;45.95;99138.72;5050880;28;20072;-74
2022/04/01 07:43:39;;;;;;;30.05;8.32;;;;;;;19.16;45.97;99105.56;5050800;28;20564;-73
2022/04/01 07:46:05;;;;;;;31.67;7.45;;;;;;;19.28;46.40;99118.41;5050799;28;20025;-74
2022/04/01 07:48:30;;;;;;;31.90;6.78;;;;;;;19.29;44.81;99130.59;5050484;28;20033;-74
2022/04/01 07:50:56;;;;;;;35.83;7.97;;;;;;;19.22;45.24;99098.44;5050429;28;20107;-74
2022/04/01 07:53:21;;;;;;;34.80;7.63;;;;;;;19.30;44.12;99126.22;5050781;28;20048;-72
2022/04/01 07:55:49;;;;;;;41.00;7.82;;;;;;;19.37;45.00;99106.88;5050822;28;20028;-72
2022/04/01 07:58:18;;;;;;;36.80;8.30;;;;;;;19.54;44.77;99122.22;5042972;28;20476;-75
2022/04/01 08:00:44;;;;;;;31.73;8.02;;;;;;;19.53;44.32;99121.34;5030520;28;20036;-74
2022/04/01 08:03:10;;;;;;;30.02;8.00;;;;;;;19.58;44.76;99121.25;5030883;28;20037;-74
2022/04/01 08:05:35;;;;;;;35.42;7.88;;;;;;;19.58;44.51;99115.16;5029777;28;20032;-74
2022/04/01 08:08:01;;;;;;;34.60;8.70;;;;;;;19.53;44.06;99102.19;5030366;28;20467;-74
2022/04/01 08:10:26;;;;;;;47.25;8.77;;;;;;;19.62;44.18;99096.72;5030568;28;20468;-72
2022/04/01 08:12:52;;;;;;;26.75;7.72;;;;;;;19.71;44.09;99100.91;5030246;28;20052;-71
2022/04/01 08:15:18;;;;;;;29.38;7.95;;;;;;;19.77;44.49;99079.81;5030541;28;20434;-74
2022/04/01 08:17:44;;;;;;;30.83;8.80;;;;;;;19.93;43.24;99084.75;5030458;28;20033;-74
2022/04/01 08:20:12;;;;;;;37.55;8.27;;;;;;;19.79;43.16;99033.50;5030025;28;20473;-74
2022/04/01 08:22:40;;;;;;;32.58;7.38;;;;;;;20.08;43.52;99092.22;5030314;28;20033;-75
2022/04/01 08:25:06;;;;;;;36.38;7.90;;;;;;;20.18;43.77;99075.38;5030217;28;20032;-74
2022/04/01 08:27:31;;;;;;;39.42;9.45;;;;;;;20.25;43.17;99083.06;5027773;28;20429;-74
2022/04/01 08:29:59;;;;;;;30.45;6.72;;;;;;;20.32;41.92;99089.88;5030336;28;20040;-74
2022/04/01 08:32:32;;;;;;;44.05;8.65;;;;;;;20.43;42.63;99089.63;5030422;28;20030;-75
2022/04/01 08:34:58;;;;;;;44.90;8.38;;;;;;;20.47;41.29;99101.75;5030358;28;20036;-74
2022/04/01 08:37:23;;;;;;;34.33;7.55;;;;;;;20.42;41.67;99093.16;5030542;28;20029;-74
2022/04/01 08:39:49;;;;;;;28.95;6.40;;;;;;;20.26;41.31;99063.84;5030405;28;20025;-74
2022/04/01 08:42:14;;;;;;;33.05;7.68;;;;;;;20.44;41.90;99086.97;5030140;28;20041;-72
2022/04/01 08:44:43;;;;;;;31.52;7.60;;;;;;;20.50;41.71;99071.06;5011482;28;20044;-73
2022/04/01 08:47:09;;;;;;;40.20;8.48;;;;;;;20.42;41.12;99046.81;5029929;28;20064;-74
2022/04/01 08:49:35;;;;;;;40.15;7.32;;;;;;;20.47;41.00;99038.81;5030427;28;20057;-73
2022/04/01 08:52:01;;;;;;;27.08;7.28;;;;;;;20.53;41.24;99057.03;5033285;28;20048;-75
2022/04/01 08:54:26;;;;;;;35.45;7.05;;;;;;;20.65;40.83;99069.81;5033940;28;20030;-74
2022/04/01 08:56:52;;;;;;;32.38;8.65;;;;;;;20.55;40.31;99020.25;5033877;28;20112;-74
2022/04/01 08:59:17;;;;;;;40.70;7.82;;;;;;;20.85;41.37;99061.41;5033236;28;20049;-75
2022/04/01 09:01:44;;;;;;;38.03;9.45;;;;;;;20.97;40.61;99047.09;5033245;28;20037;-75
2022/04/01 09:04:19;;;;;;;29.38;7.63;;;;;;;20.78;40.71;99017.03;5032608;28;20382;-74
2022/04/01 09:06:45;;;;;;;33.65;7.82;;;;;;;20.88;40.83;99042.09;5033245;28;20539;-71
2022/04/01 09:09:24;;;;;;;30.77;6.63;;;;;;;20.92;40.83;99035.88;5033398;28;20022;-73
2022/04/01 09:12:04;;;;;;;27.55;7.63;;;;;;;21.10;39.98;99044.13;5033451;28;20485;-71
2022/04/01 09:14:29;;;;;;;33.15;7.60;;;;;;;20.91;40.19;99025.41;5033439;28;20025;-74
2022/04/01 09:16:56;;;;;;;30.35;7.63;;;;;;;21.08;39.77;99033.66;5033301;28;20511;-73
2022/04/01 09:19:29;;;;;;;37.20;8.30;;;;;;;20.96;40.43;99021.78;5033436;28;20037;-73
2022/04/01 09:21:55;;;;;;;37.38;10.05;;;;;;;21.16;41.57;99023.81;5033382;28;20048;-71
2022/04/01 09:24:20;;;;;;;37.20;8.10;;;;;;;21.47;39.72;99043.00;5033590;28;20463;-74
2022/04/01 09:26:47;;;;;;;33.60;7.07;;;;;;;21.42;39.89;99037.03;5033279;28;20033;-71
2022/04/01 09:29:12;;;;;;;30.30;6.88;;;;;;;21.32;40.23;99018.97;5033183;28;20030;-72
2022/04/01 09:31:40;;;;;;;36.97;7.53;;;;;;;21.48;39.79;99040.34;5033038;28;20084;-74
2022/04/01 09:34:11;;;;;;;33.45;7.07;;;;;;;21.27;40.05;99022.59;5033286;28;20029;-72
2022/04/01 09:36:38;;;;;;;39.50;8.90;;;;;;;21.21;40.09;99042.03;5032895;28;20469;-75
2022/04/01 09:39:08;;;;;;;41.22;8.60;;;;;;;21.34;40.15;99042.53;5033188;28;20418;-73
2022/04/01 09:41:38;;;;;;;53.45;10.02;;;;;;;21.29;40.12;99019.03;5033223;28;20043;-76
2022/04/01 09:44:09;;;;;;;29.63;7.30;;;;;;;21.20;39.71;99005.31;5034161;28;20037;-71
2022/04/01 09:46:39;;;;;;;40.28;8.35;;;;;;;21.37;40.24;99028.44;5033007;28;20061;-74
2022/04/01 09:49:04;;;;;;;28.42;7.60;;;;;;;21.36;40.16;99045.09;5032099;28;20037;-73
2022/04/01 09:51:32;;;;;;;31.95;7.78;;;;;;;21.36;40.01;99048.59;5032012;28;20095;-73
2022/04/01 09:54:02;;;;;;;49.22;8.75;;;;;;;21.46;39.85;99047.41;5046874;28;20033;-74
2022/04/01 09:56:46;;;;;;;51.17;8.60;;;;;;;21.30;39.90;99049.63;5031708;28;20014;-73
2022/04/01 09:59:15;;;;;;;29.50;7.88;;;;;;;21.22;40.47;99059.53;5031492;28;20055;-73
2022/04/01 10:01:42;;;;;;;32.42;8.40;;;;;;;21.26;40.96;99044.50;5031513;28;20512;-72
2022/04/01 10:04:09;;;;;;;49.50;7.53;;;;;;;21.42;40.29;99053.66;5031325;28;20030;-75
2022/04/01 10:06:36;;;;;;;38.47;9.02;;;;;;;21.30;40.65;99062.75;5031807;28;20040;-72
2022/04/01 10:09:09;;;;;;;33.92;7.78;;;;;;;21.43;40.72;99055.38;5031652;28;20033;-74
2022/04/01 10:11:37;;;;;;;34.80;6.97;;;;;;;21.44;40.71;99041.34;5031524;28;20440;-74
2022/04/01 10:14:11;;;;;;;41.90;9.23;;;;;;;21.44;40.99;99038.69;5029251;28;20037;-74
2022/04/01 10:16:41;;;;;;;40.83;8.90;;;;;;;21.56;40.95;99055.91;5043414;28;20114;-73
2022/04/01 10:19:19;;;;;;;32.47;9.15;;;;;;;21.40;40.72;99042.34;5048156;28;20116;-72
2022/04/01 10:21:45;;;;;;;35.20;8.50;;;;;;;21.30;41.51;99057.50;5040917;28;20107;-74
2022/04/01 10:24:33;;;;;;;33.72;9.43;;;;;;;21.31;41.79;99021.63;5032408;28;20036;-73
2022/04/01 10:27:21;;;;;;;37.85;9.32;;;;;;;21.41;40.93;99037.94;5047438;28;20120;-73
2022/04/01 10:29:47;;;;;;;37.47;8.85;;;;;;;21.33;41.43;99025.94;5031776;28;20034;-72
2022/04/01 10:32:25;;;;;;;38.38;8.63;;;;;;;21.45;41.74;99047.47;5042483;28;20029;-74
2022/04/01 10:34:53;;;;;;;37.30;9.45;;;;;;;21.43;41.20;99026.50;5032789;28;20017;-74
2022/04/01 10:37:22;;;;;;;38.08;8.23;;;;;;;21.12;42.38;99011.69;5044578;28;20025;-74
2022/04/01 10:39:58;;;;;;;33.35;8.90;;;;;;;21.20;42.29;99042.94;5050535;28;20115;-76
2022/04/01 10:42:32;;;;;;;32.33;7.15;;;;;;;21.22;41.63;99008.78;5051123;28;20112;-74
2022/04/01 10:45:03;;;;;;;35.38;7.85;;;;;;;21.15;42.01;99003.72;5034892;28;20052;-74
2022/04/01 10:53:46;;;;;;;37.80;9.15;;;;;;;21.05;43.58;98980.41;5030754;28;20076;-72
2022/04/01 10:56:20;;;;;;;36.47;8.27;;;;;;;21.12;43.54;98995.06;5030318;28;20083;-74
2022/04/01 10:59:07;;;;;;;40.05;7.93;;;;;;;21.04;43.89;98990.06;5030401;28;20072;-74
2022/04/01 11:01:36;;;;;;;41.13;9.27;;;;;;;21.22;43.75;98990.41;5030835;28;20120;-74
2022/04/01 11:04:08;;;;;;;33.50;7.75;;;;;;;21.29;42.81;98992.78;5041466;28;20032;-74
2022/04/01 11:06:53;;;;;;;40.35;8.55;;;;;;;21.42;42.92;98980.16;5050388;28;20036;-73
2022/04/01 11:10:04;;;;;;;37.65;9.05;;;;;;;21.61;42.95;98992.72;5050827;28;20024;-74
2022/04/01 11:12:30;;;;;;;26.50;6.82;;;;;;;21.90;42.02;98993.53;5047616;28;20090;-74
2022/04/01 11:15:08;;;;;;;34.35;8.18;;;;;;;21.83;42.22;98979.72;5049587;28;20427;-74
2022/04/01 11:17:34;;;;;;;34.22;9.43;;;;;;;21.84;42.10;98976.19;5050243;28;20037;-74
2022/04/01 11:20:05;;;;;;;32.67;8.45;;;;;;;22.07;42.24;98979.81;5050316;28;20075;-74
2022/04/01 11:22:52;;;;;;;42.03;11.38;;;;;;;22.34;41.52;98977.16;5047877;28;20061;-72
2022/04/01 11:25:32;;;;;;;30.45;8.95;;;;;;;22.13;41.48;98969.09;5042258;28;20515;-72
2022/04/01 11:28:08;;;;;;;38.95;9.93;;;;;;;22.11;41.73;98937.63;5046410;28;20082;-72
2022/04/01 11:30:45;;;;;;;37.20;8.93;;;;;;;22.30;41.29;98950.09;5050164;28;20100;-74
2022/04/01 11:33:16;;;;;;;39.33;9.18;;;;;;;22.36;41.71;98949.88;5041889;28;20027;-73
2022/04/01 11:35:44;;;;;;;32.42;8.82;;;;;;;22.51;42.10;98960.81;5050116;28;20033;-74
2022/04/01 11:38:15;;;;;;;38.03;9.00;;;;;;;22.35;41.74;98971.81;5049566;28;20119;-73
2022/04/01 11:40:42;;;;;;;36.97;8.30;;;;;;;22.11;41.26;98957.78;5050098;28;20033;-72
2022/04/01 11:43:10;;;;;;;33.25;8.65;;;;;;;21.85;41.48;98927.16;5049988;28;20021;-73
2022/04/01 11:45:50;;;;;;;40.03;8.32;;;;;;;21.83;42.49;98965.75;5049696;28;20111;-73
2022/04/01 11:48:21;;;;;;;35.03;8.85;;;;;;;21.74;42.98;98967.75;5049746;28;20109;-74
2022/04/01 11:50:50;;;;;;;35.40;8.52;;;;;;;21.79;42.98;98951.84;5048317;28;20040;-74
2022/04/01 11:53:20;;;;;;;35.55;8.35;;;;;;;21.80;43.15;98987.72;5049421;28;20102;-72
2022/04/01 11:55:45;;;;;;;;;;;;;;;21.67;43.03;98947.00;5048962;28;20041;-76